sensor_id;sensor_type;location;lat;lon;timestamp;temperature;humidity
4840;DHT22;2434;48.486;7.964;2023-12-22T00:01:08;9.60;68.30
4840;DHT22;2434;48.486;7.964;2023-12-22T00:03:36;9.60;68.70
4840;DHT22;2434;48.486;7.964;2023-12-22T00:06:04;9.60;68.40
4840;DHT22;2434;48.486;7.964;2023-12-22T00:08:34;9.60;67.90
4840;DHT22;2434;48.486;7.964;2023-12-22T00:11:02;9.60;67.70
4840;DHT22;2434;48.486;7.964;2023-12-22T00:13:30;9.70;66.40
4840;DHT22;2434;48.486;7.964;2023-12-22T00:16:01;9.70;65.80
4840;DHT22;2434;48.486;7.964;2023-12-22T00:18:29;9.70;65.90
4840;DHT22;2434;48.486;7.964;2023-12-22T00:20:57;9.80;65.20
4840;DHT22;2434;48.486;7.964;2023-12-22T00:23:25;9.80;65.30
4840;DHT22;2434;48.486;7.964;2023-12-22T00:25:55;9.80;65.20
4840;DHT22;2434;48.486;7.964;2023-12-22T00:28:23;9.80;66.00
4840;DHT22;2434;48.486;7.964;2023-12-22T00:30:51;9.90;66.20
4840;DHT22;2434;48.486;7.964;2023-12-22T00:33:19;9.90;66.80
4840;DHT22;2434;48.486;7.964;2023-12-22T00:35:47;9.90;66.90
4840;DHT22;2434;48.486;7.964;2023-12-22T00:38:15;9.90;67.40
4840;DHT22;2434;48.486;7.964;2023-12-22T00:40:43;9.90;67.20
4840;DHT22;2434;48.486;7.964;2023-12-22T00:43:13;9.90;67.90
4840;DHT22;2434;48.486;7.964;2023-12-22T00:45:41;9.90;68.70
4840;DHT22;2434;48.486;7.964;2023-12-22T00:48:09;9.90;68.90
4840;DHT22;2434;48.486;7.964;2023-12-22T00:50:37;9.90;69.60
4840;DHT22;2434;48.486;7.964;2023-12-22T00:53:05;9.90;70.40
4840;DHT22;2434;48.486;7.964;2023-12-22T00:55:33;9.90;71.40
4840;DHT22;2434;48.486;7.964;2023-12-22T00:58:01;9.90;72.00
4840;DHT22;2434;48.486;7.964;2023-12-22T01:00:31;9.90;72.80
4840;DHT22;2434;48.486;7.964;2023-12-22T01:02:59;9.90;73.20
4840;DHT22;2434;48.486;7.964;2023-12-22T01:05:27;9.80;73.70
4840;DHT22;2434;48.486;7.964;2023-12-22T01:07:55;9.80;74.10
4840;DHT22;2434;48.486;7.964;2023-12-22T01:10:23;9.80;75.50
4840;DHT22;2434;48.486;7.964;2023-12-22T01:12:51;9.80;74.40
4840;DHT22;2434;48.486;7.964;2023-12-22T01:15:19;9.80;73.80
4840;DHT22;2434;48.486;7.964;2023-12-22T01:17:48;9.80;73.40
4840;DHT22;2434;48.486;7.964;2023-12-22T01:20:17;9.80;73.30
4840;DHT22;2434;48.486;7.964;2023-12-22T01:22:45;9.80;72.60
4840;DHT22;2434;48.486;7.964;2023-12-22T01:25:13;9.80;72.40
4840;DHT22;2434;48.486;7.964;2023-12-22T01:27:41;9.80;72.00
4840;DHT22;2434;48.486;7.964;2023-12-22T01:30:10;9.80;71.90
4840;DHT22;2434;48.486;7.964;2023-12-22T01:32:38;9.80;70.30
4840;DHT22;2434;48.486;7.964;2023-12-22T01:35:07;9.80;68.40
4840;DHT22;2434;48.486;7.964;2023-12-22T01:37:37;9.80;68.00
4840;DHT22;2434;48.486;7.964;2023-12-22T01:40:06;9.80;66.10
4840;DHT22;2434;48.486;7.964;2023-12-22T01:42:34;9.80;64.20
4840;DHT22;2434;48.486;7.964;2023-12-22T01:45:03;9.80;64.60
4840;DHT22;2434;48.486;7.964;2023-12-22T01:47:31;9.80;65.70
4840;DHT22;2434;48.486;7.964;2023-12-22T01:50:00;9.80;66.00
4840;DHT22;2434;48.486;7.964;2023-12-22T01:52:30;9.80;64.10
4840;DHT22;2434;48.486;7.964;2023-12-22T01:54:59;9.80;65.60
4840;DHT22;2434;48.486;7.964;2023-12-22T01:57:27;9.80;66.00
4840;DHT22;2434;48.486;7.964;2023-12-22T01:59:56;9.80;64.80
4840;DHT22;2434;48.486;7.964;2023-12-22T02:02:25;9.70;63.20
4840;DHT22;2434;48.486;7.964;2023-12-22T02:04:53;9.70;63.10
4840;DHT22;2434;48.486;7.964;2023-12-22T02:07:21;9.70;62.10
4840;DHT22;2434;48.486;7.964;2023-12-22T02:09:51;9.70;62.10
4840;DHT22;2434;48.486;7.964;2023-12-22T02:12:19;9.70;62.20
4840;DHT22;2434;48.486;7.964;2023-12-22T02:14:47;9.70;62.60
4840;DHT22;2434;48.486;7.964;2023-12-22T02:17:20;9.70;62.80
4840;DHT22;2434;48.486;7.964;2023-12-22T02:19:51;9.70;60.80
4840;DHT22;2434;48.486;7.964;2023-12-22T02:22:19;9.70;61.40
4840;DHT22;2434;48.486;7.964;2023-12-22T02:24:48;9.70;60.80
4840;DHT22;2434;48.486;7.964;2023-12-22T02:27:23;9.70;62.10
4840;DHT22;2434;48.486;7.964;2023-12-22T02:29:57;9.70;60.90
4840;DHT22;2434;48.486;7.964;2023-12-22T02:32:30;9.70;60.60
4840;DHT22;2434;48.486;7.964;2023-12-22T02:34:59;9.70;60.80
4840;DHT22;2434;48.486;7.964;2023-12-22T02:37:31;9.70;60.90
4840;DHT22;2434;48.486;7.964;2023-12-22T02:40:02;9.80;60.30
4840;DHT22;2434;48.486;7.964;2023-12-22T02:42:32;9.70;59.90
4840;DHT22;2434;48.486;7.964;2023-12-22T02:45:00;9.70;60.70
4840;DHT22;2434;48.486;7.964;2023-12-22T02:47:28;9.80;60.70
4840;DHT22;2434;48.486;7.964;2023-12-22T02:49:59;9.80;60.30
4840;DHT22;2434;48.486;7.964;2023-12-22T02:52:27;9.80;60.90
4840;DHT22;2434;48.486;7.964;2023-12-22T02:54:55;9.80;59.90
4840;DHT22;2434;48.486;7.964;2023-12-22T02:57:24;9.80;59.10
4840;DHT22;2434;48.486;7.964;2023-12-22T02:59:53;9.80;59.20
4840;DHT22;2434;48.486;7.964;2023-12-22T03:02:21;9.80;59.20
4840;DHT22;2434;48.486;7.964;2023-12-22T03:04:49;9.80;59.50
4840;DHT22;2434;48.486;7.964;2023-12-22T03:07:17;9.80;58.90
4840;DHT22;2434;48.486;7.964;2023-12-22T03:09:45;9.80;59.00
4840;DHT22;2434;48.486;7.964;2023-12-22T03:12:13;9.80;59.30
4840;DHT22;2434;48.486;7.964;2023-12-22T03:14:43;9.80;58.70
4840;DHT22;2434;48.486;7.964;2023-12-22T03:17:11;9.80;59.40
4840;DHT22;2434;48.486;7.964;2023-12-22T03:19:39;9.80;60.70
4840;DHT22;2434;48.486;7.964;2023-12-22T03:22:07;9.80;59.20
4840;DHT22;2434;48.486;7.964;2023-12-22T03:24:35;9.80;59.60
4840;DHT22;2434;48.486;7.964;2023-12-22T03:27:05;9.80;59.80
4840;DHT22;2434;48.486;7.964;2023-12-22T03:29:33;9.80;59.60
4840;DHT22;2434;48.486;7.964;2023-12-22T03:32:03;9.80;60.20
4840;DHT22;2434;48.486;7.964;2023-12-22T03:34:31;9.80;60.00
4840;DHT22;2434;48.486;7.964;2023-12-22T03:37:00;9.80;59.40
4840;DHT22;2434;48.486;7.964;2023-12-22T03:39:28;9.80;59.50
4840;DHT22;2434;48.486;7.964;2023-12-22T03:41:56;9.80;59.60
4840;DHT22;2434;48.486;7.964;2023-12-22T03:44:24;9.80;60.10
4840;DHT22;2434;48.486;7.964;2023-12-22T03:46:52;9.80;60.00
4840;DHT22;2434;48.486;7.964;2023-12-22T03:49:22;9.70;60.50
4840;DHT22;2434;48.486;7.964;2023-12-22T03:51:50;9.70;60.20
4840;DHT22;2434;48.486;7.964;2023-12-22T03:54:18;9.70;61.00
4840;DHT22;2434;48.486;7.964;2023-12-22T03:56:46;9.70;60.40
4840;DHT22;2434;48.486;7.964;2023-12-22T03:59:14;9.70;60.60
4840;DHT22;2434;48.486;7.964;2023-12-22T04:01:50;9.70;60.20
4840;DHT22;2434;48.486;7.964;2023-12-22T04:04:19;9.70;59.60
4840;DHT22;2434;48.486;7.964;2023-12-22T04:06:50;9.70;59.00
4840;DHT22;2434;48.486;7.964;2023-12-22T04:09:18;9.70;59.30
4840;DHT22;2434;48.486;7.964;2023-12-22T04:11:46;9.70;59.20
4840;DHT22;2434;48.486;7.964;2023-12-22T04:14:14;9.70;59.60
4840;DHT22;2434;48.486;7.964;2023-12-22T04:16:43;9.70;59.60
4840;DHT22;2434;48.486;7.964;2023-12-22T04:19:11;9.80;59.20
4840;DHT22;2434;48.486;7.964;2023-12-22T04:21:39;9.80;58.20
4840;DHT22;2434;48.486;7.964;2023-12-22T04:24:09;9.80;58.60
4840;DHT22;2434;48.486;7.964;2023-12-22T04:26:37;9.70;58.80
4840;DHT22;2434;48.486;7.964;2023-12-22T04:29:05;9.70;59.30
4840;DHT22;2434;48.486;7.964;2023-12-22T04:31:33;9.70;59.50
4840;DHT22;2434;48.486;7.964;2023-12-22T04:34:01;9.70;59.20
4840;DHT22;2434;48.486;7.964;2023-12-22T04:36:29;9.70;58.10
4840;DHT22;2434;48.486;7.964;2023-12-22T04:38:57;9.70;58.10
4840;DHT22;2434;48.486;7.964;2023-12-22T04:41:26;9.70;58.50
4840;DHT22;2434;48.486;7.964;2023-12-22T04:43:54;9.70;58.10
4840;DHT22;2434;48.486;7.964;2023-12-22T04:46:22;9.70;58.40
4840;DHT22;2434;48.486;7.964;2023-12-22T04:48:50;9.70;58.50
4840;DHT22;2434;48.486;7.964;2023-12-22T04:51:19;9.70;58.20
4840;DHT22;2434;48.486;7.964;2023-12-22T04:53:47;9.70;58.00
4840;DHT22;2434;48.486;7.964;2023-12-22T04:56:15;9.70;58.00
4840;DHT22;2434;48.486;7.964;2023-12-22T04:58:44;9.70;58.20
4840;DHT22;2434;48.486;7.964;2023-12-22T05:01:12;9.70;58.30
4840;DHT22;2434;48.486;7.964;2023-12-22T05:03:40;9.70;58.10
4840;DHT22;2434;48.486;7.964;2023-12-22T05:06:08;9.70;58.10
4840;DHT22;2434;48.486;7.964;2023-12-22T05:08:37;9.70;59.10
4840;DHT22;2434;48.486;7.964;2023-12-22T05:11:05;9.70;58.50
4840;DHT22;2434;48.486;7.964;2023-12-22T05:13:33;9.70;59.00
4840;DHT22;2434;48.486;7.964;2023-12-22T05:16:03;9.70;58.90
4840;DHT22;2434;48.486;7.964;2023-12-22T05:18:32;9.70;59.10
4840;DHT22;2434;48.486;7.964;2023-12-22T05:21:00;9.70;59.10
4840;DHT22;2434;48.486;7.964;2023-12-22T05:23:28;9.70;58.90
4840;DHT22;2434;48.486;7.964;2023-12-22T05:25:56;9.70;59.10
4840;DHT22;2434;48.486;7.964;2023-12-22T05:28:24;9.70;59.30
4840;DHT22;2434;48.486;7.964;2023-12-22T05:30:52;9.70;59.30
4840;DHT22;2434;48.486;7.964;2023-12-22T05:33:22;9.70;59.10
4840;DHT22;2434;48.486;7.964;2023-12-22T05:35:49;9.70;58.40
4840;DHT22;2434;48.486;7.964;2023-12-22T05:38:18;9.70;58.50
4840;DHT22;2434;48.486;7.964;2023-12-22T05:40:46;9.70;58.70
4840;DHT22;2434;48.486;7.964;2023-12-22T05:43:15;9.70;58.60
4840;DHT22;2434;48.486;7.964;2023-12-22T05:45:43;9.70;58.60
4840;DHT22;2434;48.486;7.964;2023-12-22T05:48:11;9.70;58.40
4840;DHT22;2434;48.486;7.964;2023-12-22T05:50:41;9.70;58.10
4840;DHT22;2434;48.486;7.964;2023-12-22T05:53:08;9.70;58.10
4840;DHT22;2434;48.486;7.964;2023-12-22T05:55:38;9.70;57.80
4840;DHT22;2434;48.486;7.964;2023-12-22T05:58:06;9.70;58.00
4840;DHT22;2434;48.486;7.964;2023-12-22T06:00:35;9.70;58.10
4840;DHT22;2434;48.486;7.964;2023-12-22T06:03:03;9.70;58.10
4840;DHT22;2434;48.486;7.964;2023-12-22T06:05:32;9.70;58.60
4840;DHT22;2434;48.486;7.964;2023-12-22T06:08:02;9.70;58.60
4840;DHT22;2434;48.486;7.964;2023-12-22T06:10:30;9.70;58.30
4840;DHT22;2434;48.486;7.964;2023-12-22T06:12:58;9.70;58.20
4840;DHT22;2434;48.486;7.964;2023-12-22T06:15:30;9.70;58.30
4840;DHT22;2434;48.486;7.964;2023-12-22T06:17:58;9.70;58.20
4840;DHT22;2434;48.486;7.964;2023-12-22T06:20:27;9.70;58.20
4840;DHT22;2434;48.486;7.964;2023-12-22T06:22:55;9.70;58.00
4840;DHT22;2434;48.486;7.964;2023-12-22T06:25:24;9.70;58.00
4840;DHT22;2434;48.486;7.964;2023-12-22T06:27:52;9.70;58.00
4840;DHT22;2434;48.486;7.964;2023-12-22T06:30:21;9.70;58.50
4840;DHT22;2434;48.486;7.964;2023-12-22T06:32:49;9.70;58.30
4840;DHT22;2434;48.486;7.964;2023-12-22T06:35:17;9.70;57.90
4840;DHT22;2434;48.486;7.964;2023-12-22T06:37:50;9.70;57.50
4840;DHT22;2434;48.486;7.964;2023-12-22T06:40:19;9.60;58.10
4840;DHT22;2434;48.486;7.964;2023-12-22T06:42:48;9.70;58.20
4840;DHT22;2434;48.486;7.964;2023-12-22T06:45:16;9.60;58.30
4840;DHT22;2434;48.486;7.964;2023-12-22T06:47:44;9.60;59.00
4840;DHT22;2434;48.486;7.964;2023-12-22T06:50:12;9.70;57.70
4840;DHT22;2434;48.486;7.964;2023-12-22T06:52:41;9.70;58.00
4840;DHT22;2434;48.486;7.964;2023-12-22T06:55:09;9.70;57.60
4840;DHT22;2434;48.486;7.964;2023-12-22T06:57:38;9.70;58.40
4840;DHT22;2434;48.486;7.964;2023-12-22T07:00:10;9.70;57.90
4840;DHT22;2434;48.486;7.964;2023-12-22T07:02:38;9.70;57.60
4840;DHT22;2434;48.486;7.964;2023-12-22T07:05:34;9.70;57.70
4840;DHT22;2434;48.486;7.964;2023-12-22T07:08:05;9.70;57.90
4840;DHT22;2434;48.486;7.964;2023-12-22T07:10:37;9.70;57.60
4840;DHT22;2434;48.486;7.964;2023-12-22T07:13:05;9.70;57.30
4840;DHT22;2434;48.486;7.964;2023-12-22T07:15:35;9.70;57.50
4840;DHT22;2434;48.486;7.964;2023-12-22T07:18:04;9.60;57.50
4840;DHT22;2434;48.486;7.964;2023-12-22T07:20:32;9.60;57.20
4840;DHT22;2434;48.486;7.964;2023-12-22T07:23:00;9.60;57.30
4840;DHT22;2434;48.486;7.964;2023-12-22T07:25:28;9.70;58.00
4840;DHT22;2434;48.486;7.964;2023-12-22T07:27:57;9.60;58.50
4840;DHT22;2434;48.486;7.964;2023-12-22T07:30:25;9.60;59.10
4840;DHT22;2434;48.486;7.964;2023-12-22T07:32:54;9.60;59.80
4840;DHT22;2434;48.486;7.964;2023-12-22T07:35:23;9.60;60.20
4840;DHT22;2434;48.486;7.964;2023-12-22T07:37:51;9.60;60.50
4840;DHT22;2434;48.486;7.964;2023-12-22T07:40:22;9.60;60.70
4840;DHT22;2434;48.486;7.964;2023-12-22T07:42:50;9.60;61.10
4840;DHT22;2434;48.486;7.964;2023-12-22T07:45:18;9.60;61.20
4840;DHT22;2434;48.486;7.964;2023-12-22T07:47:46;9.60;61.20
4840;DHT22;2434;48.486;7.964;2023-12-22T07:50:16;9.60;61.50
4840;DHT22;2434;48.486;7.964;2023-12-22T07:52:46;9.60;61.70
4840;DHT22;2434;48.486;7.964;2023-12-22T07:55:15;9.50;62.20
4840;DHT22;2434;48.486;7.964;2023-12-22T07:57:43;9.50;62.60
4840;DHT22;2434;48.486;7.964;2023-12-22T08:00:13;9.50;62.80
4840;DHT22;2434;48.486;7.964;2023-12-22T08:02:41;9.50;63.30
4840;DHT22;2434;48.486;7.964;2023-12-22T08:05:09;9.50;63.80
4840;DHT22;2434;48.486;7.964;2023-12-22T08:07:39;9.50;64.10
4840;DHT22;2434;48.486;7.964;2023-12-22T08:10:08;9.50;64.10
4840;DHT22;2434;48.486;7.964;2023-12-22T08:12:36;9.50;64.10
4840;DHT22;2434;48.486;7.964;2023-12-22T08:15:05;9.50;64.40
4840;DHT22;2434;48.486;7.964;2023-12-22T08:17:34;9.40;64.70
4840;DHT22;2434;48.486;7.964;2023-12-22T08:20:03;9.40;65.10
4840;DHT22;2434;48.486;7.964;2023-12-22T08:22:41;9.40;65.30
4840;DHT22;2434;48.486;7.964;2023-12-22T08:25:12;9.40;65.10
4840;DHT22;2434;48.486;7.964;2023-12-22T08:27:41;9.50;63.40
4840;DHT22;2434;48.486;7.964;2023-12-22T08:30:10;9.50;63.50
4840;DHT22;2434;48.486;7.964;2023-12-22T08:32:38;9.50;64.20
4840;DHT22;2434;48.486;7.964;2023-12-22T08:35:07;9.50;63.70
4840;DHT22;2434;48.486;7.964;2023-12-22T08:37:35;9.50;64.40
4840;DHT22;2434;48.486;7.964;2023-12-22T08:40:07;9.50;64.50
4840;DHT22;2434;48.486;7.964;2023-12-22T08:42:35;9.50;64.90
4840;DHT22;2434;48.486;7.964;2023-12-22T08:45:04;9.50;65.10
4840;DHT22;2434;48.486;7.964;2023-12-22T08:47:32;9.40;65.60
4840;DHT22;2434;48.486;7.964;2023-12-22T08:50:01;9.50;65.50
4840;DHT22;2434;48.486;7.964;2023-12-22T08:52:31;9.40;65.20
4840;DHT22;2434;48.486;7.964;2023-12-22T08:55:00;9.40;65.10
4840;DHT22;2434;48.486;7.964;2023-12-22T08:57:30;9.40;65.00
4840;DHT22;2434;48.486;7.964;2023-12-22T08:59:58;9.50;64.80
4840;DHT22;2434;48.486;7.964;2023-12-22T09:02:26;9.40;64.90
4840;DHT22;2434;48.486;7.964;2023-12-22T09:04:54;9.40;65.00
4840;DHT22;2434;48.486;7.964;2023-12-22T09:07:22;9.40;64.70
4840;DHT22;2434;48.486;7.964;2023-12-22T09:09:51;9.40;64.30
4840;DHT22;2434;48.486;7.964;2023-12-22T09:12:19;9.40;64.20
4840;DHT22;2434;48.486;7.964;2023-12-22T09:14:49;9.40;64.70
4840;DHT22;2434;48.486;7.964;2023-12-22T09:17:18;9.40;64.70
4840;DHT22;2434;48.486;7.964;2023-12-22T09:19:46;9.40;64.70
4840;DHT22;2434;48.486;7.964;2023-12-22T09:22:14;9.40;64.40
4840;DHT22;2434;48.486;7.964;2023-12-22T09:24:42;9.40;64.40
4840;DHT22;2434;48.486;7.964;2023-12-22T09:27:10;9.40;64.00
4840;DHT22;2434;48.486;7.964;2023-12-22T09:29:38;9.40;63.90
4840;DHT22;2434;48.486;7.964;2023-12-22T09:32:08;9.40;64.30
4840;DHT22;2434;48.486;7.964;2023-12-22T09:34:36;9.50;64.00
4840;DHT22;2434;48.486;7.964;2023-12-22T09:37:06;9.40;63.80
4840;DHT22;2434;48.486;7.964;2023-12-22T09:39:34;9.50;63.60
4840;DHT22;2434;48.486;7.964;2023-12-22T09:42:02;9.50;63.70
4840;DHT22;2434;48.486;7.964;2023-12-22T09:44:32;9.50;63.60
4840;DHT22;2434;48.486;7.964;2023-12-22T09:47:04;9.40;63.50
4840;DHT22;2434;48.486;7.964;2023-12-22T09:49:34;9.40;63.00
4840;DHT22;2434;48.486;7.964;2023-12-22T09:52:04;9.40;62.60
4840;DHT22;2434;48.486;7.964;2023-12-22T09:54:32;9.40;62.80
4840;DHT22;2434;48.486;7.964;2023-12-22T09:57:01;9.40;62.60
4840;DHT22;2434;48.486;7.964;2023-12-22T09:59:48;9.40;62.90
4840;DHT22;2434;48.486;7.964;2023-12-22T10:02:19;9.50;62.60
4840;DHT22;2434;48.486;7.964;2023-12-22T10:04:49;9.50;63.00
4840;DHT22;2434;48.486;7.964;2023-12-22T10:07:17;9.50;63.30
4840;DHT22;2434;48.486;7.964;2023-12-22T10:09:46;9.50;64.00
4840;DHT22;2434;48.486;7.964;2023-12-22T10:12:15;9.50;63.90
4840;DHT22;2434;48.486;7.964;2023-12-22T10:14:44;9.50;65.20
4840;DHT22;2434;48.486;7.964;2023-12-22T10:17:13;9.50;67.20
4840;DHT22;2434;48.486;7.964;2023-12-22T10:19:43;9.50;68.80
4840;DHT22;2434;48.486;7.964;2023-12-22T10:22:13;9.50;70.00
4840;DHT22;2434;48.486;7.964;2023-12-22T10:24:42;9.40;70.10
4840;DHT22;2434;48.486;7.964;2023-12-22T10:27:11;9.40;71.20
4840;DHT22;2434;48.486;7.964;2023-12-22T10:29:39;9.40;72.10
4840;DHT22;2434;48.486;7.964;2023-12-22T10:32:08;9.40;73.80
4840;DHT22;2434;48.486;7.964;2023-12-22T10:34:37;9.40;74.80
4840;DHT22;2434;48.486;7.964;2023-12-22T10:37:05;9.40;75.50
4840;DHT22;2434;48.486;7.964;2023-12-22T10:39:36;9.40;76.60
4840;DHT22;2434;48.486;7.964;2023-12-22T10:42:04;9.40;77.00
4840;DHT22;2434;48.486;7.964;2023-12-22T10:44:33;9.40;77.50
4840;DHT22;2434;48.486;7.964;2023-12-22T10:47:01;9.30;78.20
4840;DHT22;2434;48.486;7.964;2023-12-22T10:49:30;9.30;78.40
4840;DHT22;2434;48.486;7.964;2023-12-22T10:52:00;9.30;78.70
4840;DHT22;2434;48.486;7.964;2023-12-22T10:54:29;9.30;79.30
4840;DHT22;2434;48.486;7.964;2023-12-22T10:56:59;9.20;79.70
4840;DHT22;2434;48.486;7.964;2023-12-22T10:59:29;9.20;79.60
4840;DHT22;2434;48.486;7.964;2023-12-22T11:01:58;9.10;79.80
4840;DHT22;2434;48.486;7.964;2023-12-22T11:04:30;9.10;79.40
4840;DHT22;2434;48.486;7.964;2023-12-22T11:07:03;9.00;79.80
4840;DHT22;2434;48.486;7.964;2023-12-22T11:09:32;9.00;80.40
4840;DHT22;2434;48.486;7.964;2023-12-22T11:12:03;9.00;80.60
4840;DHT22;2434;48.486;7.964;2023-12-22T11:14:32;9.00;80.70
4840;DHT22;2434;48.486;7.964;2023-12-22T11:17:02;8.90;80.70
4840;DHT22;2434;48.486;7.964;2023-12-22T11:19:34;8.90;81.10
4840;DHT22;2434;48.486;7.964;2023-12-22T11:22:04;8.90;81.60
4840;DHT22;2434;48.486;7.964;2023-12-22T11:24:35;8.90;81.90
4840;DHT22;2434;48.486;7.964;2023-12-22T11:27:06;8.80;81.80
4840;DHT22;2434;48.486;7.964;2023-12-22T11:29:35;8.90;82.20
4840;DHT22;2434;48.486;7.964;2023-12-22T11:32:04;8.80;82.50
4840;DHT22;2434;48.486;7.964;2023-12-22T11:34:36;8.80;82.40
4840;DHT22;2434;48.486;7.964;2023-12-22T11:37:06;8.80;82.60
4840;DHT22;2434;48.486;7.964;2023-12-22T11:39:35;8.80;83.00
4840;DHT22;2434;48.486;7.964;2023-12-22T11:42:06;8.80;83.50
4840;DHT22;2434;48.486;7.964;2023-12-22T11:44:35;8.80;83.90
4840;DHT22;2434;48.486;7.964;2023-12-22T11:47:04;8.80;84.00
4840;DHT22;2434;48.486;7.964;2023-12-22T11:49:33;8.80;84.10
4840;DHT22;2434;48.486;7.964;2023-12-22T11:52:12;8.80;84.30
4840;DHT22;2434;48.486;7.964;2023-12-22T11:54:47;8.80;85.00
4840;DHT22;2434;48.486;7.964;2023-12-22T11:57:31;8.70;85.50
4840;DHT22;2434;48.486;7.964;2023-12-22T12:00:02;8.70;86.40
4840;DHT22;2434;48.486;7.964;2023-12-22T12:02:39;8.70;86.90
4840;DHT22;2434;48.486;7.964;2023-12-22T12:05:09;8.70;87.30
4840;DHT22;2434;48.486;7.964;2023-12-22T12:07:42;8.70;87.80
4840;DHT22;2434;48.486;7.964;2023-12-22T12:10:36;8.70;88.40
4840;DHT22;2434;48.486;7.964;2023-12-22T12:13:22;8.70;88.60
4840;DHT22;2434;48.486;7.964;2023-12-22T12:15:51;8.70;89.00
4840;DHT22;2434;48.486;7.964;2023-12-22T12:18:22;8.70;89.20
4840;DHT22;2434;48.486;7.964;2023-12-22T12:20:50;8.70;89.70
4840;DHT22;2434;48.486;7.964;2023-12-22T12:23:18;8.70;90.00
4840;DHT22;2434;48.486;7.964;2023-12-22T12:25:47;8.70;90.10
4840;DHT22;2434;48.486;7.964;2023-12-22T12:28:16;8.70;90.60
4840;DHT22;2434;48.486;7.964;2023-12-22T12:30:47;8.60;90.80
4840;DHT22;2434;48.486;7.964;2023-12-22T12:33:15;8.70;91.10
4840;DHT22;2434;48.486;7.964;2023-12-22T12:35:44;8.70;91.40
4840;DHT22;2434;48.486;7.964;2023-12-22T12:38:18;8.70;91.50
4840;DHT22;2434;48.486;7.964;2023-12-22T12:40:50;8.70;91.60
4840;DHT22;2434;48.486;7.964;2023-12-22T12:43:19;8.70;91.70
4840;DHT22;2434;48.486;7.964;2023-12-22T12:45:51;8.70;91.60
4840;DHT22;2434;48.486;7.964;2023-12-22T12:48:21;8.70;91.80
4840;DHT22;2434;48.486;7.964;2023-12-22T12:50:50;8.70;92.00
4840;DHT22;2434;48.486;7.964;2023-12-22T12:53:18;8.70;92.20
4840;DHT22;2434;48.486;7.964;2023-12-22T12:55:46;8.70;92.20
4840;DHT22;2434;48.486;7.964;2023-12-22T12:58:14;8.70;92.10
4840;DHT22;2434;48.486;7.964;2023-12-22T13:00:42;8.80;92.30
4840;DHT22;2434;48.486;7.964;2023-12-22T13:03:12;8.80;93.00
4840;DHT22;2434;48.486;7.964;2023-12-22T13:05:40;8.80;92.40
4840;DHT22;2434;48.486;7.964;2023-12-22T13:08:09;8.80;92.40
4840;DHT22;2434;48.486;7.964;2023-12-22T13:10:38;8.90;92.40
4840;DHT22;2434;48.486;7.964;2023-12-22T13:13:07;8.90;92.60
4840;DHT22;2434;48.486;7.964;2023-12-22T13:15:40;8.90;92.40
4840;DHT22;2434;48.486;7.964;2023-12-22T13:18:09;8.90;92.10
4840;DHT22;2434;48.486;7.964;2023-12-22T13:20:38;8.90;92.20
4840;DHT22;2434;48.486;7.964;2023-12-22T13:23:06;8.90;92.20
4840;DHT22;2434;48.486;7.964;2023-12-22T13:25:38;9.00;92.50
4840;DHT22;2434;48.486;7.964;2023-12-22T13:28:07;9.00;92.60
4840;DHT22;2434;48.486;7.964;2023-12-22T13:30:37;9.00;92.80
4840;DHT22;2434;48.486;7.964;2023-12-22T13:33:07;9.00;92.80
4840;DHT22;2434;48.486;7.964;2023-12-22T13:35:37;9.00;92.90
4840;DHT22;2434;48.486;7.964;2023-12-22T13:38:09;9.10;93.00
4840;DHT22;2434;48.486;7.964;2023-12-22T13:40:39;9.10;93.70
4840;DHT22;2434;48.486;7.964;2023-12-22T13:43:07;9.00;93.00
4840;DHT22;2434;48.486;7.964;2023-12-22T13:45:35;9.10;93.30
4840;DHT22;2434;48.486;7.964;2023-12-22T13:48:04;9.10;93.30
4840;DHT22;2434;48.486;7.964;2023-12-22T13:50:33;9.10;93.20
4840;DHT22;2434;48.486;7.964;2023-12-22T13:53:11;9.10;93.30
4840;DHT22;2434;48.486;7.964;2023-12-22T13:55:39;9.10;93.60
4840;DHT22;2434;48.486;7.964;2023-12-22T13:58:07;9.10;93.70
4840;DHT22;2434;48.486;7.964;2023-12-22T14:00:38;9.20;93.80
4840;DHT22;2434;48.486;7.964;2023-12-22T14:03:09;9.10;93.90
4840;DHT22;2434;48.486;7.964;2023-12-22T14:05:38;9.20;94.10
4840;DHT22;2434;48.486;7.964;2023-12-22T14:08:06;9.20;94.20
4840;DHT22;2434;48.486;7.964;2023-12-22T14:10:35;9.20;94.20
4840;DHT22;2434;48.486;7.964;2023-12-22T14:13:04;9.20;94.30
4840;DHT22;2434;48.486;7.964;2023-12-22T14:15:32;9.20;94.40
4840;DHT22;2434;48.486;7.964;2023-12-22T14:18:10;9.20;94.60
4840;DHT22;2434;48.486;7.964;2023-12-22T14:20:39;9.20;94.50
4840;DHT22;2434;48.486;7.964;2023-12-22T14:23:07;9.20;94.60
4840;DHT22;2434;48.486;7.964;2023-12-22T14:25:42;9.20;94.70
4840;DHT22;2434;48.486;7.964;2023-12-22T14:28:10;9.30;94.80
4840;DHT22;2434;48.486;7.964;2023-12-22T14:30:38;9.30;95.00
4840;DHT22;2434;48.486;7.964;2023-12-22T14:33:06;9.30;95.00
4840;DHT22;2434;48.486;7.964;2023-12-22T14:35:34;9.30;95.00
4840;DHT22;2434;48.486;7.964;2023-12-22T14:38:03;9.30;94.80
4840;DHT22;2434;48.486;7.964;2023-12-22T14:40:31;9.30;94.90
4840;DHT22;2434;48.486;7.964;2023-12-22T14:43:01;9.30;94.80
4840;DHT22;2434;48.486;7.964;2023-12-22T14:45:29;9.30;95.00
4840;DHT22;2434;48.486;7.964;2023-12-22T14:47:57;9.30;94.50
4840;DHT22;2434;48.486;7.964;2023-12-22T14:50:25;9.30;94.40
4840;DHT22;2434;48.486;7.964;2023-12-22T14:52:53;9.40;94.50
4840;DHT22;2434;48.486;7.964;2023-12-22T14:55:22;9.40;94.50
4840;DHT22;2434;48.486;7.964;2023-12-22T14:57:50;9.30;94.40
4840;DHT22;2434;48.486;7.964;2023-12-22T15:00:20;9.40;94.50
4840;DHT22;2434;48.486;7.964;2023-12-22T15:02:49;9.40;94.30
4840;DHT22;2434;48.486;7.964;2023-12-22T15:05:17;9.40;94.20
4840;DHT22;2434;48.486;7.964;2023-12-22T15:07:46;9.40;94.10
4840;DHT22;2434;48.486;7.964;2023-12-22T15:10:14;9.40;93.90
4840;DHT22;2434;48.486;7.964;2023-12-22T15:12:43;9.50;93.90
4840;DHT22;2434;48.486;7.964;2023-12-22T15:15:11;9.40;93.70
4840;DHT22;2434;48.486;7.964;2023-12-22T15:17:40;9.50;93.70
4840;DHT22;2434;48.486;7.964;2023-12-22T15:20:09;9.50;94.50
4840;DHT22;2434;48.486;7.964;2023-12-22T15:22:38;9.50;93.80
4840;DHT22;2434;48.486;7.964;2023-12-22T15:25:08;9.50;93.90
4840;DHT22;2434;48.486;7.964;2023-12-22T15:27:36;9.50;93.80
4840;DHT22;2434;48.486;7.964;2023-12-22T15:30:07;9.50;93.90
4840;DHT22;2434;48.486;7.964;2023-12-22T15:32:35;9.50;93.60
4840;DHT22;2434;48.486;7.964;2023-12-22T15:35:06;9.50;93.40
4840;DHT22;2434;48.486;7.964;2023-12-22T15:37:35;9.50;93.20
4840;DHT22;2434;48.486;7.964;2023-12-22T15:40:03;9.50;93.30
4840;DHT22;2434;48.486;7.964;2023-12-22T15:42:31;9.50;93.30
4840;DHT22;2434;48.486;7.964;2023-12-22T15:45:00;9.50;93.40
4840;DHT22;2434;48.486;7.964;2023-12-22T15:47:28;9.50;93.20
4840;DHT22;2434;48.486;7.964;2023-12-22T15:49:56;9.50;93.10
4840;DHT22;2434;48.486;7.964;2023-12-22T15:52:25;9.50;93.20
4840;DHT22;2434;48.486;7.964;2023-12-22T15:54:54;9.50;93.20
4840;DHT22;2434;48.486;7.964;2023-12-22T15:57:22;9.50;93.20
4840;DHT22;2434;48.486;7.964;2023-12-22T15:59:50;9.50;93.20
4840;DHT22;2434;48.486;7.964;2023-12-22T16:02:18;9.60;93.10
4840;DHT22;2434;48.486;7.964;2023-12-22T16:04:46;9.60;93.00
4840;DHT22;2434;48.486;7.964;2023-12-22T16:07:14;9.60;93.00
4840;DHT22;2434;48.486;7.964;2023-12-22T16:09:44;9.60;92.90
4840;DHT22;2434;48.486;7.964;2023-12-22T16:12:12;9.60;92.90
4840;DHT22;2434;48.486;7.964;2023-12-22T16:14:40;9.60;92.70
4840;DHT22;2434;48.486;7.964;2023-12-22T16:17:08;9.60;93.30
4840;DHT22;2434;48.486;7.964;2023-12-22T16:19:37;9.60;92.30
4840;DHT22;2434;48.486;7.964;2023-12-22T16:22:06;9.60;92.30
4840;DHT22;2434;48.486;7.964;2023-12-22T16:24:37;9.60;92.10
4840;DHT22;2434;48.486;7.964;2023-12-22T16:27:07;9.60;92.10
4840;DHT22;2434;48.486;7.964;2023-12-22T16:29:38;9.60;91.80